Time;durP1;ratioP1;P1;durP2;ratioP2;P2;SDS_P1;SDS_P2;PMS_P1;PMS_P2;Temp;Humidity;BMP_temperature;BMP_pressure;BME280_temperature;BME280_humidity;BME280_pressure;Samples;Min_cycle;Max_cycle;Signal;HPM_P1;HPM_P2
2024/02/28 00:00:11;;;;;;;;;;;;;;;19.04;62.91;101365.03;7388016;19;1234;-77
2024/02/28 00:02:42;;;;;;;;;;;;;;;19.05;62.83;101366.72;7387601;19;1857;-77
2024/02/28 00:05:11;;;;;;;;;;;;;;;19.07;62.79;101399.63;7388654;19;1587;-77
2024/02/28 00:07:40;;;;;;;;;;;;;;;19.09;62.75;101351.25;7386413;19;1480;-77
2024/02/28 00:10:08;;;;;;;;;;;;;;;19.01;62.79;101357.22;7389651;19;1564;-77
2024/02/28 00:12:37;;;;;;;;;;;;;;;18.98;62.91;101359.28;7393670;19;1498;-77
2024/02/28 00:15:10;;;;;;;;;;;;;;;19.02;62.91;101353.59;7394583;19;1207;-77
2024/02/28 00:17:38;;;;;;;;;;;;;;;19.10;62.66;101363.72;7391953;19;1508;-77
2024/02/28 00:20:11;;;;;;;;;;;;;;;19.08;62.56;101362.97;7392634;19;1404;-77
2024/02/28 00:22:39;;;;;;;;;;;;;;;19.01;62.78;101356.38;7393373;19;1838;-77
2024/02/28 00:25:09;;;;;;;;;;;;;;;19.02;62.58;101375.03;7392023;19;1492;-77
2024/02/28 00:27:38;;;;;;;;;;;;;;;18.95;62.79;101371.09;7389081;19;1472;-77
2024/02/28 00:30:07;;;;;;;;;;;;;;;18.99;62.61;101369.03;7394246;19;1661;-78
2024/02/28 00:32:36;;;;;;;;;;;;;;;18.98;62.80;101360.16;7393480;19;1385;-77
2024/02/28 00:35:04;;;;;;;;;;;;;;;18.96;62.93;101371.94;7391078;19;1707;-78
2024/02/28 00:37:35;;;;;;;;;;;;;;;18.94;62.70;101371.22;7392642;19;1480;-77
2024/02/28 00:40:04;;;;;;;;;;;;;;;18.95;62.76;101373.78;7392340;19;1696;-77
2024/02/28 00:42:32;;;;;;;;;;;;;;;18.95;62.79;101381.84;7391893;19;1866;-77
2024/02/28 00:45:00;;;;;;;;;;;;;;;19.01;62.37;101359.91;7394507;19;1037;-77
2024/02/28 00:47:29;;;;;;;;;;;;;;;18.96;62.62;101366.59;7394653;19;1868;-77
2024/02/28 00:49:57;;;;;;;;;;;;;;;18.95;62.61;101367.59;7387327;19;1498;-78
2024/02/28 00:52:25;;;;;;;;;;;;;;;18.95;62.61;101357.72;7395210;19;1830;-78
2024/02/28 00:54:56;;;;;;;;;;;;;;;18.84;62.64;101357.69;7395278;19;1442;-77
2024/02/28 00:57:25;;;;;;;;;;;;;;;18.93;62.66;101361.50;7395779;19;1648;-77
2024/02/28 00:59:54;;;;;;;;;;;;;;;18.86;62.69;101355.75;7394278;19;1536;-77
2024/02/28 01:02:22;;;;;;;;;;;;;;;18.86;62.72;101351.25;7392566;19;1859;-78
2024/02/28 01:04:51;;;;;;;;;;;;;;;18.95;62.64;101355.03;7393859;19;1228;-77
2024/02/28 01:07:19;;;;;;;;;;;;;;;18.96;62.40;101351.41;7392961;19;1223;-77
2024/02/28 01:09:47;;;;;;;;;;;;;;;18.93;62.55;101356.13;7393316;19;1114;-78
2024/02/28 01:12:18;;;;;;;;;;;;;;;18.86;62.57;101340.53;7393360;19;1851;-77
2024/02/28 01:14:47;;;;;;;;;;;;;;;18.90;62.45;101345.63;7393512;19;1820;-77
2024/02/28 01:17:15;;;;;;;;;;;;;;;18.90;62.52;101341.16;7392546;19;1194;-78
2024/02/28 01:19:43;;;;;;;;;;;;;;;18.85;62.48;101346.84;7392331;19;1686;-77
2024/02/28 01:22:12;;;;;;;;;;;;;;;18.82;62.54;101339.06;7389834;19;1880;-78
2024/02/28 01:24:40;;;;;;;;;;;;;;;18.90;62.54;101357.25;7393696;19;1342;-77
2024/02/28 01:27:09;;;;;;;;;;;;;;;18.93;62.23;101343.56;7394405;19;1301;-78
2024/02/28 01:29:40;;;;;;;;;;;;;;;18.83;62.59;101353.31;7390787;19;1401;-77
2024/02/28 01:32:08;;;;;;;;;;;;;;;18.79;62.50;101359.84;7393993;19;1448;-77
2024/02/28 01:34:37;;;;;;;;;;;;;;;18.81;62.49;101344.53;7391333;19;1574;-77
2024/02/28 01:37:05;;;;;;;;;;;;;;;18.78;62.67;101385.81;7391943;19;1294;-77
2024/02/28 01:39:34;;;;;;;;;;;;;;;18.74;62.66;101344.16;7392934;19;1860;-77
2024/02/28 01:42:02;;;;;;;;;;;;;;;18.77;62.46;101345.72;7391403;19;1859;-76
2024/02/28 01:44:30;;;;;;;;;;;;;;;18.82;62.46;101359.63;7392593;19;1762;-77
2024/02/28 01:47:03;;;;;;;;;;;;;;;18.78;62.34;101363.50;7391278;19;1568;-77
2024/02/28 01:49:32;;;;;;;;;;;;;;;18.68;62.59;101360.69;7380386;19;1633;-78
2024/02/28 01:52:00;;;;;;;;;;;;;;;18.73;62.36;101365.69;7389181;19;1485;-77
2024/02/28 01:54:29;;;;;;;;;;;;;;;18.79;62.41;101375.94;7389072;19;1555;-77
2024/02/28 01:56:58;;;;;;;;;;;;;;;18.77;62.44;101388.59;7392220;19;1583;-77
2024/02/28 01:59:28;;;;;;;;;;;;;;;18.77;62.54;101356.44;7391625;19;1642;-77
2024/02/28 02:01:57;;;;;;;;;;;;;;;18.82;62.52;101375.72;7392817;19;1441;-78
2024/02/28 02:04:27;;;;;;;;;;;;;;;18.79;62.26;101368.78;7389947;19;1855;-77
2024/02/28 02:06:58;;;;;;;;;;;;;;;18.76;62.38;101365.44;7390309;19;2368;-77
2024/02/28 02:09:26;;;;;;;;;;;;;;;18.58;62.93;101376.63;7392176;19;1567;-77
2024/02/28 02:11:55;;;;;;;;;;;;;;;18.70;62.61;101369.44;7388625;19;1847;-77
2024/02/28 02:14:23;;;;;;;;;;;;;;;19.23;61.33;101366.25;7390362;19;1838;-77
2024/02/28 02:16:51;;;;;;;;;;;;;;;19.95;59.48;101356.88;7391055;19;1576;-77
2024/02/28 02:19:20;;;;;;;;;;;;;;;20.29;58.63;101362.09;7389054;19;1483;-78
2024/02/28 02:21:55;;;;;;;;;;;;;;;20.49;58.16;101374.69;7390185;19;1402;-77
2024/02/28 02:24:26;;;;;;;;;;;;;;;20.49;58.11;101373.84;7387428;19;1849;-77
2024/02/28 02:26:57;;;;;;;;;;;;;;;20.48;58.29;101370.31;7390505;19;1286;-78
2024/02/28 02:29:27;;;;;;;;;;;;;;;20.61;57.81;101370.13;7390870;19;1561;-77
2024/02/28 02:31:55;;;;;;;;;;;;;;;20.50;58.06;101362.97;7392886;19;1025;-78
2024/02/28 02:34:24;;;;;;;;;;;;;;;20.56;58.05;101385.78;7387883;19;1463;-78
2024/02/28 02:36:52;;;;;;;;;;;;;;;20.50;58.14;101384.47;7390780;19;1864;-77
2024/02/28 02:39:20;;;;;;;;;;;;;;;20.51;58.23;101386.16;7388932;19;1909;-77
2024/02/28 02:41:51;;;;;;;;;;;;;;;20.59;58.13;101388.22;7390355;19;1733;-78
2024/02/28 02:44:20;;;;;;;;;;;;;;;20.57;58.02;101392.84;7387410;19;1845;-77
2024/02/28 02:46:48;;;;;;;;;;;;;;;20.58;58.17;101378.44;7389479;19;1550;-76
2024/02/28 02:49:18;;;;;;;;;;;;;;;20.63;58.10;101392.34;7378201;19;1112;-77
2024/02/28 02:51:46;;;;;;;;;;;;;;;20.61;58.10;101389.81;7386575;19;1483;-77
2024/02/28 02:54:15;;;;;;;;;;;;;;;20.64;57.98;101392.22;7386147;19;1822;-77
2024/02/28 02:56:44;;;;;;;;;;;;;;;20.71;57.73;101399.75;7390398;19;1566;-77
2024/02/28 02:59:15;;;;;;;;;;;;;;;20.69;57.94;101394.53;7388470;19;1857;-78
2024/02/28 03:01:43;;;;;;;;;;;;;;;20.70;57.66;101396.22;7388603;19;1374;-77
2024/02/28 03:04:12;;;;;;;;;;;;;;;20.74;57.83;101399.50;7388333;19;1859;-78
2024/02/28 03:06:40;;;;;;;;;;;;;;;20.75;57.61;101406.59;7389128;19;1472;-77
2024/02/28 03:09:09;;;;;;;;;;;;;;;20.61;57.91;101388.94;7389675;19;1571;-78
2024/02/28 03:11:38;;;;;;;;;;;;;;;20.78;57.58;101422.47;7388506;19;1566;-77
2024/02/28 03:14:06;;;;;;;;;;;;;;;20.79;57.63;101405.34;7389187;19;1464;-78
2024/02/28 03:16:38;;;;;;;;;;;;;;;20.85;57.51;101416.44;7385702;19;1489;-78
2024/02/28 03:19:06;;;;;;;;;;;;;;;20.90;57.46;101426.78;7389346;19;1579;-77
2024/02/28 03:21:35;;;;;;;;;;;;;;;20.90;57.51;101410.66;7389608;19;1575;-77
2024/02/28 03:24:03;;;;;;;;;;;;;;;20.93;57.31;101415.78;7389173;19;1849;-77
2024/02/28 03:26:31;;;;;;;;;;;;;;;20.95;57.34;101423.69;7389308;19;1674;-77
2024/02/28 03:29:00;;;;;;;;;;;;;;;20.98;57.21;101418.06;7388816;19;1538;-78
2024/02/28 03:31:28;;;;;;;;;;;;;;;20.99;57.27;101419.75;7388240;19;1596;-77
2024/02/28 03:33:59;;;;;;;;;;;;;;;20.97;57.38;101421.72;7389289;19;2453;-77
2024/02/28 03:36:27;;;;;;;;;;;;;;;20.96;57.26;101442.38;7392115;19;1484;-78
2024/02/28 03:38:56;;;;;;;;;;;;;;;21.06;57.14;101437.91;7394265;19;1452;-77
2024/02/28 03:41:24;;;;;;;;;;;;;;;21.03;57.13;101440.88;7394362;19;1563;-77
2024/02/28 03:43:52;;;;;;;;;;;;;;;21.04;57.08;101434.50;7393116;19;1869;-77
2024/02/28 03:46:21;;;;;;;;;;;;;;;21.04;57.07;101445.25;7386131;19;1355;-77
2024/02/28 03:48:50;;;;;;;;;;;;;;;21.06;56.97;101440.59;7390395;19;1128;-78
2024/02/28 03:51:21;;;;;;;;;;;;;;;21.09;56.89;101433.25;7374506;19;1473;-77
2024/02/28 03:53:49;;;;;;;;;;;;;;;21.06;57.20;101443.28;7389671;19;1243;-77
2024/02/28 03:56:24;;;;;;;;;;;;;;;21.08;57.13;101439.63;7389907;19;1495;-77
2024/02/28 03:58:52;;;;;;;;;;;;;;;21.07;57.29;101446.84;7388238;19;1677;-78
2024/02/28 04:01:21;;;;;;;;;;;;;;;20.65;58.03;101449.50;7386578;19;1690;-77
2024/02/28 04:03:49;;;;;;;;;;;;;;;20.26;59.19;101455.38;7388300;19;1861;-77
2024/02/28 04:06:17;;;;;;;;;;;;;;;20.01;59.54;101455.69;7388611;19;1492;-78
2024/02/28 04:08:48;;;;;;;;;;;;;;;19.89;59.74;101462.06;7389329;19;1131;-77
2024/02/28 04:11:17;;;;;;;;;;;;;;;19.78;59.73;101471.00;7388228;19;1030;-77
2024/02/28 04:13:45;;;;;;;;;;;;;;;19.66;60.11;101468.28;7387113;19;1758;-77
2024/02/28 04:16:13;;;;;;;;;;;;;;;19.57;60.44;101473.53;7383601;19;1923;-77
2024/02/28 04:18:43;;;;;;;;;;;;;;;19.56;60.32;101455.75;7386106;19;1582;-77
2024/02/28 04:21:11;;;;;;;;;;;;;;;19.53;60.55;101470.22;7388436;19;994;-77
2024/02/28 04:23:41;;;;;;;;;;;;;;;19.45;60.66;101465.47;7385951;19;1855;-77
2024/02/28 04:26:12;;;;;;;;;;;;;;;19.43;60.71;101477.28;7386283;19;1931;-77
2024/02/28 04:28:41;;;;;;;;;;;;;;;19.38;60.83;101464.25;7385553;19;1931;-77
2024/02/28 04:31:09;;;;;;;;;;;;;;;19.34;61.00;101489.63;7386071;19;1539;-77
2024/02/28 04:33:38;;;;;;;;;;;;;;;19.27;61.06;101477.66;7387809;19;1488;-77
2024/02/28 04:36:07;;;;;;;;;;;;;;;19.28;61.15;101484.72;7388690;19;1784;-77
2024/02/28 04:38:36;;;;;;;;;;;;;;;19.24;61.13;101477.91;7385820;19;1425;-76
2024/02/28 04:41:04;;;;;;;;;;;;;;;19.14;61.54;101466.16;7374592;19;1305;-77
2024/02/28 04:43:35;;;;;;;;;;;;;;;19.41;61.21;101474.72;7386917;19;1861;-77
2024/02/28 04:46:04;;;;;;;;;;;;;;;19.84;60.21;101491.97;7387475;19;1500;-77
2024/02/28 04:48:33;;;;;;;;;;;;;;;19.96;60.17;101499.03;7387555;19;1472;-77
2024/02/28 04:51:02;;;;;;;;;;;;;;;19.72;60.63;101504.53;7373666;19;1689;-78
2024/02/28 04:53:31;;;;;;;;;;;;;;;19.58;60.88;101492.19;7385666;19;1726;-78
2024/02/28 04:55:59;;;;;;;;;;;;;;;19.48;60.79;101488.53;7386090;19;1655;-77
2024/02/28 04:58:27;;;;;;;;;;;;;;;19.23;61.56;101481.53;7394155;19;1417;-78
2024/02/28 05:00:58;;;;;;;;;;;;;;;19.15;61.79;101497.38;7379403;19;1525;-77
2024/02/28 05:03:27;;;;;;;;;;;;;;;19.11;62.00;101491.38;7390388;19;1884;-77
2024/02/28 05:05:55;;;;;;;;;;;;;;;19.13;61.59;101491.28;7395003;19;1575;-76
2024/02/28 05:08:24;;;;;;;;;;;;;;;19.08;61.70;101488.97;7393829;19;1555;-76
2024/02/28 05:10:52;;;;;;;;;;;;;;;19.23;61.40;101503.00;7394554;19;1154;-76
2024/02/28 05:13:22;;;;;;;;;;;;;;;19.78;60.27;101492.47;7389233;19;1506;-76
2024/02/28 05:15:50;;;;;;;;;;;;;;;19.82;60.45;101494.78;7391931;19;1523;-76
2024/02/28 05:18:21;;;;;;;;;;;;;;;20.04;59.62;101503.78;7392442;19;1254;-77
2024/02/28 05:20:49;;;;;;;;;;;;;;;19.35;59.28;101502.03;7388859;19;1579;-76
2024/02/28 05:23:18;;;;;;;;;;;;;;;19.01;55.48;101509.16;7385178;19;2332;-76
2024/02/28 05:25:46;;;;;;;;;;;;;;;19.05;59.09;101498.06;7391957;19;1564;-77
2024/02/28 05:28:14;;;;;;;;;;;;;;;19.12;59.53;101511.00;7391462;19;1920;-76
2024/02/28 05:30:43;;;;;;;;;;;;;;;19.16;59.27;101508.00;7393033;19;1846;-76
2024/02/28 05:33:11;;;;;;;;;;;;;;;19.04;59.36;101509.78;7390293;19;1504;-77
2024/02/28 05:35:42;;;;;;;;;;;;;;;19.15;59.48;101517.00;7389711;19;1835;-76
2024/02/28 05:38:11;;;;;;;;;;;;;;;19.27;59.40;101523.22;7391007;19;1630;-76
2024/02/28 05:40:39;;;;;;;;;;;;;;;19.44;59.14;101530.84;7388283;19;1795;-76
2024/02/28 05:43:07;;;;;;;;;;;;;;;19.60;58.88;101535.00;7387858;19;1535;-77
2024/02/28 05:45:36;;;;;;;;;;;;;;;19.75;58.57;101532.94;7384054;19;1892;-76
2024/02/28 05:48:04;;;;;;;;;;;;;;;19.86;58.08;101528.44;7385978;19;2494;-76
2024/02/28 05:50:32;;;;;;;;;;;;;;;19.93;57.97;101527.94;7370064;19;1568;-76
2024/02/28 05:53:03;;;;;;;;;;;;;;;20.02;57.73;101537.97;7386345;19;1330;-76
2024/02/28 05:55:32;;;;;;;;;;;;;;;20.04;57.68;101522.56;7389718;19;1611;-76
2024/02/28 05:58:01;;;;;;;;;;;;;;;19.25;57.92;101409.88;7391143;19;1582;-76
2024/02/28 06:00:29;;;;;;;;;;;;;;;19.98;57.93;101541.88;7391894;19;1540;-77
2024/02/28 06:02:57;;;;;;;;;;;;;;;19.98;57.98;101537.34;7393174;19;1208;-77
2024/02/28 06:05:26;;;;;;;;;;;;;;;19.99;57.85;101552.47;7391277;19;1847;-76
2024/02/28 06:07:54;;;;;;;;;;;;;;;19.97;58.13;101551.72;7389302;19;1828;-77
2024/02/28 06:10:25;;;;;;;;;;;;;;;20.01;57.74;101546.97;7391452;19;1571;-76
2024/02/28 06:12:54;;;;;;;;;;;;;;;20.11;57.75;101558.69;7390849;19;1314;-77
2024/02/28 06:15:22;;;;;;;;;;;;;;;20.06;57.98;101555.53;7388145;19;1630;-77
2024/02/28 06:17:51;;;;;;;;;;;;;;;19.99;58.14;101557.81;7388701;19;1093;-76
2024/02/28 06:20:19;;;;;;;;;;;;;;;19.98;58.08;101566.88;7389192;19;1066;-77
2024/02/28 06:22:47;;;;;;;;;;;;;;;19.97;58.27;101575.03;7389764;19;1764;-76
2024/02/28 06:25:19;;;;;;;;;;;;;;;19.92;58.28;101571.88;7384789;19;1859;-76
2024/02/28 06:27:49;;;;;;;;;;;;;;;19.95;58.00;101559.06;7389308;19;1629;-76
2024/02/28 06:30:19;;;;;;;;;;;;;;;19.94;58.17;101553.84;7391392;19;1094;-78
2024/02/28 06:32:48;;;;;;;;;;;;;;;19.94;58.29;101559.19;7391943;19;1100;-76
2024/02/28 06:35:16;;;;;;;;;;;;;;;20.03;58.10;101577.25;7391504;19;1830;-77
2024/02/28 06:37:49;;;;;;;;;;;;;;;19.99;58.03;101563.19;7390428;19;1393;-76
2024/02/28 06:40:18;;;;;;;;;;;;;;;20.10;57.80;101573.09;7388931;19;1516;-76
2024/02/28 06:42:46;;;;;;;;;;;;;;;20.04;57.63;101576.28;7390746;19;1516;-76
2024/02/28 06:45:17;;;;;;;;;;;;;;;20.09;57.16;101581.25;7388885;19;1861;-76
2024/02/28 06:47:46;;;;;;;;;;;;;;;20.14;56.82;101565.66;7392101;19;1666;-76
2024/02/28 06:50:14;;;;;;;;;;;;;;;20.16;57.02;101580.66;7376821;19;1580;-75
2024/02/28 06:52:44;;;;;;;;;;;;;;;20.17;56.89;101579.66;7390624;19;1494;-75
2024/02/28 06:55:14;;;;;;;;;;;;;;;20.02;57.08;101575.53;7380033;19;1464;-75
2024/02/28 06:57:43;;;;;;;;;;;;;;;19.91;57.63;101592.47;7389235;19;1912;-76
2024/02/28 07:00:12;;;;;;;;;;;;;;;19.81;57.90;101591.50;7386815;19;1483;-75
2024/02/28 07:02:43;;;;;;;;;;;;;;;19.77;58.08;101593.56;7387898;19;1876;-75
2024/02/28 07:05:11;;;;;;;;;;;;;;;19.76;57.95;101583.81;7384766;19;1853;-76
2024/02/28 07:07:40;;;;;;;;;;;;;;;19.78;57.88;101589.94;7385273;19;1671;-76
2024/02/28 07:10:09;;;;;;;;;;;;;;;19.52;58.49;101580.31;7385662;19;1487;-76
2024/02/28 07:12:37;;;;;;;;;;;;;;;19.38;58.77;101582.28;7385547;19;1647;-76
2024/02/28 07:15:06;;;;;;;;;;;;;;;19.42;58.87;101580.22;7383380;19;1231;-75
2024/02/28 07:17:34;;;;;;;;;;;;;;;19.42;58.80;101597.16;7383744;19;1496;-76
2024/02/28 07:20:05;;;;;;;;;;;;;;;19.46;58.45;101605.81;7383256;19;1223;-75
2024/02/28 07:22:34;;;;;;;;;;;;;;;19.47;58.73;101578.84;7384631;19;1457;-75
2024/02/28 07:25:02;;;;;;;;;;;;;;;19.44;58.78;101576.44;7382240;19;1851;-75
2024/02/28 07:27:30;;;;;;;;;;;;;;;19.34;58.96;101582.59;7385851;19;1520;-75
2024/02/28 07:29:58;;;;;;;;;;;;;;;19.33;59.10;101587.13;7385264;19;1584;-76
2024/02/28 07:32:27;;;;;;;;;;;;;;;19.28;59.09;101584.81;7383545;19;1686;-76
2024/02/28 07:34:55;;;;;;;;;;;;;;;19.25;59.33;101581.50;7384439;19;1569;-75
2024/02/28 07:37:26;;;;;;;;;;;;;;;19.26;59.32;101575.19;7378851;19;1435;-75
2024/02/28 07:39:54;;;;;;;;;;;;;;;19.32;59.26;101588.09;7386136;19;1366;-75
2024/02/28 07:42:23;;;;;;;;;;;;;;;19.25;59.15;101574.28;7384333;19;1867;-75
2024/02/28 07:44:56;;;;;;;;;;;;;;;19.43;59.06;101568.50;7382880;19;1829;-76
2024/02/28 07:47:25;;;;;;;;;;;;;;;19.64;58.61;101582.09;7386157;19;1509;-76
2024/02/28 07:49:53;;;;;;;;;;;;;;;19.53;58.98;101577.53;7382121;19;1508;-76
2024/02/28 07:52:21;;;;;;;;;;;;;;;19.47;59.02;101561.91;7372031;19;1429;-76
2024/02/28 07:54:52;;;;;;;;;;;;;;;19.42;59.10;101567.66;7384453;19;1584;-75
2024/02/28 07:57:21;;;;;;;;;;;;;;;19.36;59.17;101551.16;7385111;19;1354;-75
2024/02/28 07:59:50;;;;;;;;;;;;;;;19.34;59.35;101594.22;7383540;19;1353;-76
2024/02/28 08:02:20;;;;;;;;;;;;;;;19.39;59.33;101567.03;7385504;19;1651;-76
2024/02/28 08:04:50;;;;;;;;;;;;;;;19.30;59.39;101563.25;7384213;19;1861;-76
2024/02/28 08:07:18;;;;;;;;;;;;;;;19.24;59.70;101563.72;7384432;19;1550;-76
2024/02/28 08:09:47;;;;;;;;;;;;;;;19.28;59.55;101554.47;7381958;19;1347;-77
2024/02/28 08:12:18;;;;;;;;;;;;;;;19.34;59.46;101570.06;7385022;19;1430;-76
2024/02/28 08:14:46;;;;;;;;;;;;;;;19.66;58.73;101566.72;7384421;19;1203;-76
2024/02/28 08:17:15;;;;;;;;;;;;;;;19.85;58.23;101558.94;7384306;19;1286;-75
2024/02/28 08:19:44;;;;;;;;;;;;;;;19.74;58.45;101556.25;7383888;19;1581;-76
2024/02/28 08:22:12;;;;;;;;;;;;;;;19.65;58.69;101549.75;7382069;19;1239;-76
2024/02/28 08:24:40;;;;;;;;;;;;;;;19.41;59.14;101555.19;7382049;19;1855;-76
2024/02/28 08:27:09;;;;;;;;;;;;;;;19.27;59.42;101558.09;7384583;19;1454;-76
2024/02/28 08:29:43;;;;;;;;;;;;;;;19.26;59.47;101553.72;7386961;19;1512;-76
2024/02/28 08:32:12;;;;;;;;;;;;;;;19.27;59.73;101550.06;7390508;19;1578;-75
2024/02/28 08:34:41;;;;;;;;;;;;;;;19.27;59.43;101552.72;7395410;19;1267;-75
2024/02/28 08:37:10;;;;;;;;;;;;;;;19.22;59.62;101563.81;7395583;19;1672;-76
2024/02/28 08:39:38;;;;;;;;;;;;;;;19.39;59.39;101557.16;7394921;19;1563;-75
2024/02/28 08:42:06;;;;;;;;;;;;;;;19.72;58.49;101562.72;7395294;19;1218;-75
2024/02/28 08:44:35;;;;;;;;;;;;;;;19.91;58.21;101565.66;7395878;19;1977;-75
2024/02/28 08:47:07;;;;;;;;;;;;;;;19.76;58.52;101559.69;7393094;19;1445;-75
2024/02/28 08:49:36;;;;;;;;;;;;;;;19.55;58.89;101572.91;7393129;19;1766;-75
2024/02/28 08:52:04;;;;;;;;;;;;;;;19.41;59.43;101573.13;7378080;19;1493;-76
2024/02/28 08:54:32;;;;;;;;;;;;;;;19.28;59.62;101559.81;7391705;19;1531;-76
2024/02/28 08:57:01;;;;;;;;;;;;;;;19.27;59.73;101574.19;7382281;19;1584;-76
2024/02/28 08:59:29;;;;;;;;;;;;;;;19.30;59.54;101565.91;7388191;19;1403;-76
2024/02/28 09:01:57;;;;;;;;;;;;;;;19.31;59.48;101572.97;7388138;19;2499;-76
2024/02/28 09:04:28;;;;;;;;;;;;;;;19.26;59.92;101567.97;7388639;19;1842;-76
2024/02/28 09:06:57;;;;;;;;;;;;;;;19.59;58.95;101569.00;7386960;19;1208;-75
2024/02/28 09:09:25;;;;;;;;;;;;;;;19.86;58.45;101560.66;7389455;19;1445;-74
2024/02/28 09:11:53;;;;;;;;;;;;;;;19.83;58.25;101566.25;7389289;19;1449;-74
2024/02/28 09:14:22;;;;;;;;;;;;;;;19.70;58.83;101576.22;7389295;19;1377;-73
2024/02/28 09:16:50;;;;;;;;;;;;;;;19.64;59.02;101560.63;7387700;19;1497;-74
2024/02/28 09:19:18;;;;;;;;;;;;;;;19.46;59.18;101557.53;7391396;19;1468;-74
2024/02/28 09:21:50;;;;;;;;;;;;;;;19.38;59.53;101563.50;7393622;19;1559;-74
2024/02/28 09:24:18;;;;;;;;;;;;;;;19.40;59.58;101566.06;7392239;19;1442;-74
2024/02/28 09:26:46;;;;;;;;;;;;;;;19.33;59.88;101571.03;7391823;19;1866;-75
2024/02/28 09:29:15;;;;;;;;;;;;;;;19.29;59.78;101593.69;7394780;19;1320;-77
2024/02/28 09:31:43;;;;;;;;;;;;;;;19.22;59.96;101581.75;7390690;19;1534;-77
2024/02/28 09:34:12;;;;;;;;;;;;;;;19.43;59.92;101590.81;7391692;19;1264;-77
2024/02/28 09:36:45;;;;;;;;;;;;;;;19.82;58.62;101580.66;7392576;19;1699;-78
2024/02/28 09:39:16;;;;;;;;;;;;;;;20.13;57.80;101588.94;7392146;19;1576;-77
2024/02/28 09:41:44;;;;;;;;;;;;;;;19.85;58.25;101580.41;7391871;19;1656;-77
2024/02/28 09:44:13;;;;;;;;;;;;;;;19.70;58.93;101586.97;7393857;19;1371;-77
2024/02/28 09:46:42;;;;;;;;;;;;;;;19.55;59.02;101572.06;7381346;19;1845;-77
2024/02/28 09:49:11;;;;;;;;;;;;;;;19.54;59.22;101565.00;7391475;19;1450;-77
2024/02/28 09:51:40;;;;;;;;;;;;;;;19.50;59.09;101563.50;7378658;19;1508;-77
2024/02/28 09:54:09;;;;;;;;;;;;;;;19.59;59.13;101570.84;7392498;19;1851;-77
2024/02/28 09:56:39;;;;;;;;;;;;;;;19.51;59.21;101554.50;7391559;19;1508;-76
2024/02/28 09:59:09;;;;;;;;;;;;;;;19.43;59.50;101550.56;7392825;19;1765;-77
2024/02/28 10:01:39;;;;;;;;;;;;;;;19.68;58.99;101562.09;7394541;19;1722;-76
2024/02/28 10:04:10;;;;;;;;;;;;;;;19.99;58.42;101549.78;7400411;19;1575;-76
2024/02/28 10:06:38;;;;;;;;;;;;;;;19.96;58.30;101557.25;7398395;19;1951;-76
2024/02/28 10:09:07;;;;;;;;;;;;;;;19.71;58.86;101551.13;7401051;19;1475;-76
2024/02/28 10:11:35;;;;;;;;;;;;;;;19.66;59.04;101550.63;7400757;19;1712;-76
2024/02/28 10:14:06;;;;;;;;;;;;;;;19.57;59.23;101560.22;7411761;19;1070;-76
2024/02/28 10:16:35;;;;;;;;;;;;;;;19.55;59.31;101547.91;7408457;19;1869;-76
2024/02/28 10:19:03;;;;;;;;;;;;;;;19.51;59.27;101541.06;7399338;19;1577;-76
2024/02/28 10:21:33;;;;;;;;;;;;;;;19.50;59.43;101550.09;7395187;19;1497;-77
2024/02/28 10:24:01;;;;;;;;;;;;;;;19.37;59.74;101526.91;7396129;19;1260;-76
2024/02/28 10:26:31;;;;;;;;;;;;;;;19.67;59.18;101534.38;7394237;19;1842;-76
2024/02/28 10:29:02;;;;;;;;;;;;;;;19.98;58.46;101531.97;7403284;19;1708;-75
2024/02/28 10:31:37;;;;;;;;;;;;;;;20.01;58.26;101520.13;7402183;19;1902;-76
2024/02/28 10:34:06;;;;;;;;;;;;;;;19.69;59.02;101523.53;7403668;19;1568;-76
2024/02/28 10:36:35;;;;;;;;;;;;;;;19.64;59.31;101509.63;7400852;19;1413;-76
2024/02/28 10:39:03;;;;;;;;;;;;;;;19.66;59.31;101515.72;7401131;19;1385;-76
2024/02/28 10:41:32;;;;;;;;;;;;;;;19.64;59.42;101493.53;7399208;19;1734;-76
2024/02/28 10:44:01;;;;;;;;;;;;;;;19.60;59.25;101500.13;7396084;19;1488;-76
2024/02/28 10:46:30;;;;;;;;;;;;;;;19.46;59.74;101509.25;7397208;19;1860;-76
2024/02/28 10:49:01;;;;;;;;;;;;;;;19.44;59.24;101504.00;7397850;19;1154;-75
2024/02/28 10:51:30;;;;;;;;;;;;;;;19.39;59.01;101492.78;7382382;19;1591;-76
2024/02/28 10:54:05;;;;;;;;;;;;;;;19.31;59.23;101495.19;7395803;19;1755;-76
2024/02/28 10:56:33;;;;;;;;;;;;;;;19.59;58.49;101493.88;7395122;19;1208;-77
2024/02/28 10:59:02;;;;;;;;;;;;;;;19.93;57.38;101485.00;7394230;19;1724;-78
2024/02/28 11:01:30;;;;;;;;;;;;;;;20.63;55.69;101476.53;7396862;19;1659;-77
2024/02/28 11:03:59;;;;;;;;;;;;;;;20.88;55.27;101465.53;7395574;19;1851;-77
2024/02/28 11:06:27;;;;;;;;;;;;;;;20.94;55.32;101470.38;7395024;19;1856;-77
2024/02/28 11:08:56;;;;;;;;;;;;;;;20.90;54.59;101469.78;7401384;19;1588;-77
2024/02/28 11:11:24;;;;;;;;;;;;;;;20.88;54.86;101461.00;7399001;19;1215;-76
2024/02/28 11:13:54;;;;;;;;;;;;;;;20.88;55.10;101468.22;7396127;19;1472;-77
2024/02/28 11:16:28;;;;;;;;;;;;;;;21.02;54.92;101454.44;7394228;19;1626;-76
2024/02/28 11:18:56;;;;;;;;;;;;;;;21.11;54.71;101464.41;7392384;19;1417;-77
2024/02/28 11:21:31;;;;;;;;;;;;;;;21.16;54.65;101466.69;7392532;19;1274;-76
2024/02/28 11:24:03;;;;;;;;;;;;;;;21.07;54.86;101449.53;7393665;19;1242;-77
2024/02/28 11:26:31;;;;;;;;;;;;;;;21.02;55.05;101436.47;7392971;19;1845;-77
2024/02/28 11:29:00;;;;;;;;;;;;;;;21.20;54.92;101438.56;7393215;19;1825;-77
2024/02/28 11:31:28;;;;;;;;;;;;;;;21.28;54.63;101452.19;7394028;19;1926;-77
2024/02/28 11:33:56;;;;;;;;;;;;;;;21.23;54.77;101449.91;7392061;19;1907;-77
2024/02/28 11:36:25;;;;;;;;;;;;;;;21.19;55.08;101442.25;7391552;19;1716;-76
2024/02/28 11:38:56;;;;;;;;;;;;;;;21.13;55.13;101440.94;7390177;19;1903;-76
2024/02/28 11:41:26;;;;;;;;;;;;;;;21.24;54.90;101443.53;7390373;19;1665;-77
2024/02/28 11:43:54;;;;;;;;;;;;;;;21.32;54.81;101421.34;7389769;19;1406;-77
2024/02/28 11:46:22;;;;;;;;;;;;;;;21.31;54.96;101435.78;7389724;19;1866;-77
2024/02/28 11:48:52;;;;;;;;;;;;;;;21.34;54.82;101429.28;7390003;19;1747;-76
2024/02/28 11:51:20;;;;;;;;;;;;;;;21.27;55.02;101431.66;7384055;19;1549;-76
2024/02/28 11:53:49;;;;;;;;;;;;;;;21.31;55.02;101422.34;7386310;19;1622;-76
2024/02/28 11:56:21;;;;;;;;;;;;;;;21.41;54.69;101417.84;7391187;19;1427;-76
2024/02/28 11:58:52;;;;;;;;;;;;;;;21.37;54.66;101402.13;7390477;19;1567;-77
2024/02/28 12:01:21;;;;;;;;;;;;;;;21.35;54.99;101399.56;7389765;19;1141;-76
2024/02/28 12:03:49;;;;;;;;;;;;;;;21.29;55.25;101409.97;7390136;19;1550;-76
2024/02/28 12:06:17;;;;;;;;;;;;;;;21.43;54.94;101418.59;7388064;19;1881;-76
2024/02/28 12:08:47;;;;;;;;;;;;;;;21.50;54.84;101396.53;7389990;19;1120;-78
2024/02/28 12:11:16;;;;;;;;;;;;;;;21.50;54.82;101391.97;7390678;19;1707;-77
2024/02/28 12:13:47;;;;;;;;;;;;;;;21.43;54.82;101402.44;7388211;19;1382;-77
2024/02/28 12:16:15;;;;;;;;;;;;;;;21.40;55.05;101391.91;7385636;19;1761;-76
2024/02/28 12:18:44;;;;;;;;;;;;;;;21.45;54.94;101397.78;7388730;19;1587;-76
2024/02/28 12:21:12;;;;;;;;;;;;;;;21.60;54.66;101400.94;7389677;19;999;-76
2024/02/28 12:23:40;;;;;;;;;;;;;;;21.55;54.78;101384.34;7388766;19;2152;-76
2024/02/28 12:26:09;;;;;;;;;;;;;;;21.55;54.77;101388.91;7387955;19;1876;-76
2024/02/28 12:28:37;;;;;;;;;;;;;;;21.50;54.86;101393.81;7387545;19;1588;-77
2024/02/28 12:31:11;;;;;;;;;;;;;;;21.58;54.97;101391.28;7386513;19;1309;-76
2024/02/28 12:33:39;;;;;;;;;;;;;;;21.62;54.83;101385.50;7388552;19;1734;-77
2024/02/28 12:36:08;;;;;;;;;;;;;;;21.61;54.73;101364.13;7387420;19;1227;-76
2024/02/28 12:38:36;;;;;;;;;;;;;;;21.58;54.83;101384.06;7387160;19;1125;-77
2024/02/28 12:41:05;;;;;;;;;;;;;;;21.48;55.15;101379.66;7387632;19;1713;-76
2024/02/28 12:43:34;;;;;;;;;;;;;;;21.52;55.16;101378.38;7387824;19;1211;-76
2024/02/28 12:46:03;;;;;;;;;;;;;;;21.60;54.87;101378.56;7385645;19;1901;-76
2024/02/28 12:48:34;;;;;;;;;;;;;;;21.69;54.75;101384.97;7389370;19;1120;-77
2024/02/28 12:51:02;;;;;;;;;;;;;;;21.61;55.04;101370.34;7387121;19;1651;-76
2024/02/28 12:53:30;;;;;;;;;;;;;;;21.59;54.91;101430.69;7376493;19;1658;-76
2024/02/28 12:55:59;;;;;;;;;;;;;;;21.54;55.00;101360.28;7387674;19;1556;-77